In Rescue
 
Open Full Screen Window  High Contrast Mode
Wind Gusting 00 knots
11
May 20, 2019 3:32 PM EDT
Weather Information
Wind Direction
  290 °
Wind Speed
  11 kt (13 mph)
Wind Gust
  00 kt (0 mph)
Altimeter
30.03 in
Visibility
10 SM
Temperature
10° C
50° F
Dewpoint
03° C
37° F
Humidity
62%
1hr Rain Fall
00.00 in.
24hr Rain Fall
00.08 in.
Sky Condition
Overcast @ 2,400 ft
MVFR

METAR KY70 201932Z AUTO 29011KT 10SM OVC024 10/03 A3003 RMK AO2

FAA Disclaimer: The data displayed is for advisory purposes only and is not to be used for flight planning or operations.